Time;durP1;ratioP1;P1;durP2;ratioP2;P2;SDS_P1;SDS_P2;PMS_P1;PMS_P2;Temp;Humidity;BMP_temperature;BMP_pressure;BME280_temperature;BME280_humidity;BME280_pressure;Samples;Min_cycle;Max_cycle;Signal;HPM_P1;HPM_P2
2022/11/17 00:01:18;;;;;;;6.90;4.50;;;;;;;;;;4933816;29;20194;-66
2022/11/17 00:03:48;;;;;;;5.93;4.82;;;;;;;;;;4933698;29;20475;-66
2022/11/17 00:06:15;;;;;;;7.40;5.38;;;;;;;;;;4933524;29;20048;-66
2022/11/17 00:08:42;;;;;;;6.50;4.78;;;;;;;;;;4934257;29;20487;-66
2022/11/17 00:11:09;;;;;;;5.63;4.47;;;;;;;;;;4934784;29;20059;-66
2022/11/17 00:16:21;;;;;;;6.38;3.95;;;;;;;;;;4934362;29;20058;-66
2022/11/17 00:21:33;;;;;;;5.30;3.92;;;;;;;;;;4933517;29;20052;-66
2022/11/17 00:24:00;;;;;;;6.25;3.60;;;;;;;;;;4933584;29;20067;-66
2022/11/17 00:26:31;;;;;;;6.53;3.38;;;;;;;;;;4934511;29;20081;-66
2022/11/17 00:29:06;;;;;;;5.15;3.30;;;;;;;;;;4917308;29;20119;-66
2022/11/17 00:34:20;;;;;;;6.78;3.33;;;;;;;;;;4933595;29;20126;-66
2022/11/17 00:36:51;;;;;;;4.95;3.30;;;;;;;;;;4917375;29;20043;-66
2022/11/17 00:39:19;;;;;;;4.53;2.65;;;;;;;;;;4932607;29;20102;-66
2022/11/17 00:41:46;;;;;;;7.50;4.03;;;;;;;;;;4933286;29;20060;-67
2022/11/17 00:44:13;;;;;;;6.22;3.80;;;;;;;;;;4933253;29;20055;-66
2022/11/17 00:46:40;;;;;;;5.57;3.20;;;;;;;;;;4932865;29;20102;-67
2022/11/17 00:49:07;;;;;;;6.40;3.10;;;;;;;;;;4917283;29;20130;-66
2022/11/17 00:51:34;;;;;;;5.53;3.55;;;;;;;;;;4933284;29;20055;-67
2022/11/17 00:54:02;;;;;;;4.90;3.35;;;;;;;;;;4934179;29;20107;-66
2022/11/17 00:56:29;;;;;;;4.35;3.00;;;;;;;;;;4932991;29;20047;-66
2022/11/17 00:58:56;;;;;;;6.47;3.55;;;;;;;;;;4901679;29;20051;-66
2022/11/17 01:01:23;;;;;;;3.83;2.88;;;;;;;;;;4934483;29;20055;-66
2022/11/17 01:03:49;;;;;;;5.90;3.60;;;;;;;;;;4934329;29;20052;-67
2022/11/17 01:06:18;;;;;;;4.32;3.35;;;;;;;;;;4934230;29;20048;-67
2022/11/17 01:08:45;;;;;;;6.28;3.40;;;;;;;;;;4932448;29;20495;-67
2022/11/17 01:11:17;;;;;;;5.30;3.75;;;;;;;;;;4933315;29;20467;-67
2022/11/17 01:13:44;;;;;;;4.03;3.10;;;;;;;;;;4933084;29;20044;-67
2022/11/17 01:16:13;;;;;;;3.95;3.55;;;;;;;;;;4914089;29;20071;-67
2022/11/17 01:18:41;;;;;;;7.80;3.38;;;;;;;;;;4932190;29;20052;-67
2022/11/17 01:21:10;;;;;;;4.50;2.80;;;;;;;;;;4917375;29;20131;-67
2022/11/17 01:23:38;;;;;;;3.97;3.40;;;;;;;;;;4933151;29;20115;-67
2022/11/17 01:26:16;;;;;;;5.78;2.92;;;;;;;;;;4932925;29;20430;-66
2022/11/17 01:28:43;;;;;;;3.92;2.78;;;;;;;;;;4934298;29;20115;-66
2022/11/17 01:31:12;;;;;;;6.97;3.13;;;;;;;;;;4936617;29;20384;-66
2022/11/17 01:33:39;;;;;;;4.55;2.75;;;;;;;;;;4936658;29;20055;-66
2022/11/17 01:36:17;;;;;;;6.70;3.00;;;;;;;;;;4936521;29;20079;-66
2022/11/17 01:38:44;;;;;;;3.35;2.88;;;;;;;;;;4917172;29;20055;-66
2022/11/17 01:41:16;;;;;;;5.03;2.85;;;;;;;;;;4917668;29;20084;-66
2022/11/17 01:43:48;;;;;;;5.47;3.13;;;;;;;;;;4911815;29;20051;-66
2022/11/17 01:46:37;;;;;;;3.88;2.70;;;;;;;;;;4936068;29;20110;-66
2022/11/17 01:49:21;;;;;;;5.68;2.85;;;;;;;;;;4936687;29;20570;-66
2022/11/17 01:51:50;;;;;;;3.75;2.80;;;;;;;;;;4921022;29;20387;-66
2022/11/17 01:54:18;;;;;;;3.50;2.38;;;;;;;;;;4936292;29;20467;-66
2022/11/17 01:56:46;;;;;;;4.55;2.60;;;;;;;;;;4936033;29;20101;-66
2022/11/17 01:59:18;;;;;;;3.55;2.67;;;;;;;;;;4935694;29;20076;-66
2022/11/17 02:01:54;;;;;;;4.47;2.83;;;;;;;;;;4937176;29;20060;-66
2022/11/17 02:04:42;;;;;;;3.58;2.70;;;;;;;;;;4936178;29;20491;-66
2022/11/17 02:07:16;;;;;;;3.80;2.80;;;;;;;;;;4920010;29;20048;-66
2022/11/17 02:09:43;;;;;;;3.35;2.58;;;;;;;;;;4935521;29;20139;-66
2022/11/17 02:12:11;;;;;;;4.75;2.72;;;;;;;;;;4936042;29;20051;-66
2022/11/17 02:14:38;;;;;;;3.03;2.58;;;;;;;;;;4935652;29;20487;-65
2022/11/17 02:17:06;;;;;;;3.67;2.80;;;;;;;;;;4916773;29;20086;-65
2022/11/17 02:19:41;;;;;;;3.95;3.55;;;;;;;;;;4930958;29;20055;-67
2022/11/17 02:22:20;;;;;;;3.80;2.83;;;;;;;;;;4927118;29;20103;-65
2022/11/17 02:25:18;;;;;;;4.82;2.50;;;;;;;;;;4935804;29;20087;-65
2022/11/17 02:28:01;;;;;;;4.60;2.60;;;;;;;;;;4934343;29;20055;-66
2022/11/17 02:30:40;;;;;;;5.35;2.58;;;;;;;;;;4935755;29;20111;-66
2022/11/17 02:33:15;;;;;;;4.30;2.40;;;;;;;;;;4921090;29;20538;-67
2022/11/17 02:35:48;;;;;;;3.15;2.35;;;;;;;;;;4935655;29;20147;-67
2022/11/17 02:38:24;;;;;;;4.32;2.55;;;;;;;;;;4933494;29;20072;-68
2022/11/17 02:41:01;;;;;;;4.18;3.17;;;;;;;;;;4936692;29;20324;-66
2022/11/17 02:46:45;;;;;;;4.75;2.58;;;;;;;;;;4928011;28;20082;-66
2022/11/17 02:49:25;;;;;;;4.07;2.60;;;;;;;;;;4920980;29;20122;-66
2022/11/17 02:51:54;;;;;;;4.90;3.00;;;;;;;;;;4919905;29;20051;-67
2022/11/17 02:54:21;;;;;;;2.92;2.63;;;;;;;;;;4935243;29;20568;-66
2022/11/17 02:56:48;;;;;;;5.00;2.58;;;;;;;;;;4935169;29;20044;-66
2022/11/17 02:59:17;;;;;;;4.22;2.65;;;;;;;;;;4934281;29;20094;-66
2022/11/17 03:02:02;;;;;;;6.20;2.85;;;;;;;;;;4935156;29;20054;-67
2022/11/17 03:04:31;;;;;;;3.70;2.80;;;;;;;;;;4935966;29;20495;-66
2022/11/17 03:07:13;;;;;;;4.35;2.85;;;;;;;;;;4919024;29;20052;-65
2022/11/17 03:09:48;;;;;;;4.22;2.85;;;;;;;;;;4934142;29;20063;-66
2022/11/17 03:12:17;;;;;;;3.65;2.38;;;;;;;;;;4935106;29;20051;-66
2022/11/17 03:14:54;;;;;;;3.45;2.60;;;;;;;;;;4936077;29;20491;-66
2022/11/17 03:18:05;;;;;;;2.85;2.28;;;;;;;;;;4918988;29;20558;-68
2022/11/17 03:20:53;;;;;;;3.38;2.33;;;;;;;;;;4916222;29;20056;-67
2022/11/17 03:24:05;;;;;;;4.03;2.50;;;;;;;;;;4916820;29;20052;-66
2022/11/17 03:26:42;;;;;;;4.05;2.17;;;;;;;;;;4924166;29;20087;-67
2022/11/17 03:29:11;;;;;;;3.80;2.55;;;;;;;;;;4914932;29;20091;-67
2022/11/17 03:31:37;;;;;;;3.97;2.60;;;;;;;;;;4915514;29;20052;-67
2022/11/17 03:34:06;;;;;;;4.00;2.72;;;;;;;;;;4915431;29;20048;-67
2022/11/17 03:36:34;;;;;;;7.82;3.17;;;;;;;;;;4926192;29;20052;-67
2022/11/17 03:39:22;;;;;;;5.72;3.47;;;;;;;;;;5020353;23;20046;-69
2022/11/17 03:41:50;;;;;;;5.28;3.28;;;;;;;;;;5012309;28;20078;-69
2022/11/17 03:44:16;;;;;;;4.88;3.28;;;;;;;;;;5005223;28;20088;-69
2022/11/17 03:46:43;;;;;;;3.50;2.97;;;;;;;;;;5032512;28;20080;-69
2022/11/17 03:49:17;;;;;;;4.13;3.17;;;;;;;;;;4995906;28;20080;-69
2022/11/17 03:51:44;;;;;;;5.40;3.13;;;;;;;;;;4995205;28;20050;-68
2022/11/17 03:54:10;;;;;;;3.78;2.70;;;;;;;;;;5011861;28;20345;-69
2022/11/17 03:57:06;;;;;;;1.83;1.70;;;;;;;;;;5011607;28;20050;-69
2022/11/17 04:00:07;;;;;;;3.42;2.17;;;;;;;;;;4997285;28;20054;-68
2022/11/17 04:02:34;;;;;;;3.00;2.03;;;;;;;;;;4969173;28;20136;-69
2022/11/17 04:05:07;;;;;;;3.20;1.80;;;;;;;;;;5011702;28;20085;-68
2022/11/17 04:07:41;;;;;;;4.22;2.00;;;;;;;;;;5012742;28;20076;-69
2022/11/17 04:10:10;;;;;;;3.20;2.45;;;;;;;;;;5012096;28;20081;-69
2022/11/17 04:15:55;;;;;;;4.00;2.30;;;;;;;;;;5020826;28;20054;-69
2022/11/17 04:18:18;;;;;;;3.80;2.60;;;;;;;;;;4994052;28;20065;-69
2022/11/17 04:20:49;;;;;;;5.38;2.63;;;;;;;;;;5012203;28;20054;-69
2022/11/17 04:23:15;;;;;;;2.50;2.22;;;;;;;;;;5012416;28;20096;-69
2022/11/17 04:28:35;;;;;;;5.20;2.80;;;;;;;;;;5011515;28;20042;-69
2022/11/17 04:31:02;;;;;;;;;;;;;;;;;;5012756;28;20070;-69
2022/11/17 04:33:28;;;;;;;4.07;2.33;;;;;;;;;;5012542;28;19995;-69
2022/11/17 04:35:56;;;;;;;2.50;2.25;;;;;;;;;;5012507;28;20164;-69
2022/11/17 04:38:22;;;;;;;2.70;2.42;;;;;;;;;;5011480;28;20088;-69
2022/11/17 04:43:35;;;;;;;3.53;2.35;;;;;;;;;;5012330;28;20393;-69
2022/11/17 04:46:03;;;;;;;3.22;2.42;;;;;;;;;;5010930;28;20045;-69
2022/11/17 04:48:29;;;;;;;3.10;2.33;;;;;;;;;;5011350;28;20125;-69
2022/11/17 04:50:56;;;;;;;3.67;2.50;;;;;;;;;;5012154;28;20128;-69
2022/11/17 04:53:23;;;;;;;3.78;2.80;;;;;;;;;;5012169;28;20045;-69
2022/11/17 04:55:50;;;;;;;2.60;2.40;;;;;;;;;;5012148;28;20049;-69
2022/11/17 04:58:16;;;;;;;4.90;2.50;;;;;;;;;;5011538;28;20049;-68
2022/11/17 05:00:43;;;;;;;4.75;2.38;;;;;;;;;;5011980;28;20459;-69
2022/11/17 05:03:09;;;;;;;3.13;2.53;;;;;;;;;;5013377;28;20101;-68
2022/11/17 05:05:36;;;;;;;5.55;2.60;;;;;;;;;;5016216;28;20061;-69
2022/11/17 05:08:03;;;;;;;3.00;2.45;;;;;;;;;;5015301;28;20092;-69
2022/11/17 05:13:20;;;;;;;3.50;2.42;;;;;;;;;;5016018;28;20049;-69
2022/11/17 05:18:41;;;;;;;3.33;2.30;;;;;;;;;;5014993;28;20049;-69
2022/11/17 05:21:09;;;;;;;2.58;2.05;;;;;;;;;;5015675;28;20476;-68
2022/11/17 05:23:55;;;;;;;3.75;2.38;;;;;;;;;;5015677;28;20124;-69
2022/11/17 05:26:27;;;;;;;2.38;2.17;;;;;;;;;;5015820;28;20491;-69
2022/11/17 05:28:56;;;;;;;4.80;2.30;;;;;;;;;;5014906;28;20092;-69
2022/11/17 05:31:24;;;;;;;2.22;2.03;;;;;;;;;;5015550;28;20078;-69
2022/11/17 05:33:51;;;;;;;2.25;1.92;;;;;;;;;;5015747;28;20488;-69
2022/11/17 05:36:18;;;;;;;3.72;2.33;;;;;;;;;;5015351;28;20492;-69
2022/11/17 05:38:48;;;;;;;3.55;2.50;;;;;;;;;;5014270;28;20050;-69
2022/11/17 05:41:16;;;;;;;5.93;2.45;;;;;;;;;;5015355;28;20049;-69
2022/11/17 05:43:43;;;;;;;4.55;2.20;;;;;;;;;;5014772;28;20046;-69
2022/11/17 05:46:09;;;;;;;3.20;2.33;;;;;;;;;;5014963;28;20492;-69
2022/11/17 05:48:36;;;;;;;5.90;2.42;;;;;;;;;;5014687;28;20092;-69
2022/11/17 05:51:03;;;;;;;4.65;2.67;;;;;;;;;;5015099;28;20467;-69
2022/11/17 05:53:30;;;;;;;3.60;2.58;;;;;;;;;;5014913;28;20100;-69
2022/11/17 05:56:09;;;;;;;3.15;2.20;;;;;;;;;;5015064;28;20419;-69
2022/11/17 05:58:36;;;;;;;2.72;2.00;;;;;;;;;;5014422;28;20132;-69
2022/11/17 06:01:03;;;;;;;4.03;2.28;;;;;;;;;;5014986;28;20496;-69
2022/11/17 06:03:35;;;;;;;3.35;2.15;;;;;;;;;;5014831;28;20099;-69
2022/11/17 06:06:02;;;;;;;3.30;2.35;;;;;;;;;;5016539;28;20054;-69
2022/11/17 06:08:29;;;;;;;3.75;2.05;;;;;;;;;;5014158;28;20073;-69
2022/11/17 06:10:56;;;;;;;2.17;1.92;;;;;;;;;;5013604;28;20054;-69
2022/11/17 06:13:26;;;;;;;2.65;1.95;;;;;;;;;;5014390;28;20455;-69
2022/11/17 06:15:57;;;;;;;2.75;1.95;;;;;;;;;;5014833;28;20072;-69
2022/11/17 06:18:26;;;;;;;2.40;1.90;;;;;;;;;;5006743;28;20125;-69
2022/11/17 06:20:56;;;;;;;4.70;1.90;;;;;;;;;;4995526;28;20062;-69
2022/11/17 06:23:25;;;;;;;4.45;2.25;;;;;;;;;;4993790;28;20093;-69
2022/11/17 06:25:51;;;;;;;1.98;1.60;;;;;;;;;;4994083;28;20054;-69
2022/11/17 06:28:19;;;;;;;2.22;1.80;;;;;;;;;;4994302;28;20089;-69
2022/11/17 06:30:45;;;;;;;6.45;3.72;;;;;;;;;;4995384;28;20089;-69
2022/11/17 06:33:13;;;;;;;2.95;2.55;;;;;;;;;;4994338;28;20104;-69
2022/11/17 06:35:40;;;;;;;1.92;1.33;;;;;;;;;;4999202;28;20527;-69
2022/11/17 06:38:06;;;;;;;5.55;1.70;;;;;;;;;;5010191;28;20475;-69
2022/11/17 06:40:33;;;;;;;2.63;1.10;;;;;;;;;;5007657;28;20050;-69
2022/11/17 06:43:07;;;;;;;2.85;1.40;;;;;;;;;;5014375;28;20088;-69
2022/11/17 06:45:41;;;;;;;1.80;1.50;;;;;;;;;;5014339;28;20489;-69
2022/11/17 06:48:09;;;;;;;2.83;1.35;;;;;;;;;;5008992;28;20054;-68
2022/11/17 06:50:35;;;;;;;3.38;1.48;;;;;;;;;;5007767;28;20073;-68
2022/11/17 06:53:04;;;;;;;1.73;1.20;;;;;;;;;;5014172;28;20089;-68
2022/11/17 06:55:30;;;;;;;4.68;1.48;;;;;;;;;;5014158;28;20096;-68
2022/11/17 06:57:59;;;;;;;4.85;2.20;;;;;;;;;;5013298;28;20078;-68
2022/11/17 07:00:26;;;;;;;1.77;1.20;;;;;;;;;;5013619;28;20058;-68
2022/11/17 07:03:01;;;;;;;4.05;1.23;;;;;;;;;;5012896;28;20133;-67
2022/11/17 07:05:31;;;;;;;1.20;0.93;;;;;;;;;;5014025;28;20054;-67
2022/11/17 07:07:59;;;;;;;1.77;1.23;;;;;;;;;;5013462;28;20046;-67
2022/11/17 07:10:26;;;;;;;2.55;1.15;;;;;;;;;;5010259;28;20073;-67
2022/11/17 07:12:53;;;;;;;1.95;1.13;;;;;;;;;;5011637;28;20081;-67
2022/11/17 07:15:19;;;;;;;4.75;1.05;;;;;;;;;;5011737;28;20104;-68
2022/11/17 07:17:46;;;;;;;2.20;1.30;;;;;;;;;;5011171;28;20046;-67
2022/11/17 07:20:13;;;;;;;3.85;0.90;;;;;;;;;;5010191;28;20081;-68
2022/11/17 07:22:42;;;;;;;2.08;1.25;;;;;;;;;;5011441;28;20112;-67
2022/11/17 07:25:10;;;;;;;1.00;0.88;;;;;;;;;;5010905;28;20145;-67
2022/11/17 07:27:37;;;;;;;1.17;0.90;;;;;;;;;;5010955;28;20053;-67
2022/11/17 07:30:05;;;;;;;3.70;0.82;;;;;;;;;;5010676;28;20053;-67
2022/11/17 07:32:33;;;;;;;2.15;1.20;;;;;;;;;;5011267;28;20054;-67
2022/11/17 07:35:00;;;;;;;1.67;0.98;;;;;;;;;;5010905;28;20053;-68
2022/11/17 07:37:30;;;;;;;2.33;1.10;;;;;;;;;;5011279;28;20050;-67
2022/11/17 07:39:57;;;;;;;1.67;0.80;;;;;;;;;;5010544;28;20073;-67
2022/11/17 07:42:24;;;;;;;1.55;1.45;;;;;;;;;;5011155;28;20540;-68
2022/11/17 07:44:50;;;;;;;3.05;1.10;;;;;;;;;;5011080;28;20419;-67
2022/11/17 07:47:17;;;;;;;1.55;0.90;;;;;;;;;;5011128;28;20038;-67
2022/11/17 07:49:44;;;;;;;3.85;2.30;;;;;;;;;;5010038;28;20188;-67
2022/11/17 07:52:10;;;;;;;6.65;2.70;;;;;;;;;;5010977;28;20149;-68
2022/11/17 07:54:37;;;;;;;2.88;0.90;;;;;;;;;;5010793;28;20496;-67
2022/11/17 07:57:03;;;;;;;2.00;1.00;;;;;;;;;;5010670;28;20084;-68
2022/11/17 07:59:30;;;;;;;2.10;0.98;;;;;;;;;;5010170;28;20483;-67
2022/11/17 08:01:56;;;;;;;2.13;1.08;;;;;;;;;;5010543;28;20053;-68
2022/11/17 08:04:23;;;;;;;2.67;0.90;;;;;;;;;;5010869;28;20140;-68
2022/11/17 08:06:50;;;;;;;1.95;0.98;;;;;;;;;;5010739;28;20416;-68
2022/11/17 08:09:16;;;;;;;2.95;1.00;;;;;;;;;;5010343;28;20172;-68
2022/11/17 08:11:43;;;;;;;3.95;1.20;;;;;;;;;;5010539;28;20429;-68
2022/11/17 08:14:09;;;;;;;1.13;0.90;;;;;;;;;;5010499;28;20058;-68
2022/11/17 08:16:36;;;;;;;3.15;1.38;;;;;;;;;;5010669;28;20144;-67
2022/11/17 08:19:04;;;;;;;3.50;1.30;;;;;;;;;;5010029;28;20489;-67
2022/11/17 08:21:31;;;;;;;4.38;1.00;;;;;;;;;;5010510;28;20049;-67
2022/11/17 08:23:59;;;;;;;3.28;1.08;;;;;;;;;;5010398;28;20081;-67
2022/11/17 08:26:25;;;;;;;1.98;1.30;;;;;;;;;;5010553;28;20125;-68
2022/11/17 08:28:52;;;;;;;3.72;1.30;;;;;;;;;;5009502;28;20132;-68
2022/11/17 08:31:24;;;;;;;3.97;1.10;;;;;;;;;;5010373;28;20053;-68
2022/11/17 08:33:50;;;;;;;2.70;1.10;;;;;;;;;;5010392;28;20054;-67
2022/11/17 08:36:17;;;;;;;4.07;1.30;;;;;;;;;;5010290;28;20192;-69
2022/11/17 08:38:44;;;;;;;4.20;0.80;;;;;;;;;;4997996;28;20050;-72
2022/11/17 08:41:10;;;;;;;2.85;0.98;;;;;;;;;;5004242;28;20053;-69
2022/11/17 08:43:37;;;;;;;2.40;1.10;;;;;;;;;;5001106;28;20046;-69
2022/11/17 08:46:04;;;;;;;3.83;1.00;;;;;;;;;;5001379;28;20081;-69
2022/11/17 08:48:31;;;;;;;4.03;1.63;;;;;;;;;;4993917;28;20120;-70
2022/11/17 08:51:06;;;;;;;5.13;1.55;;;;;;;;;;4998607;28;20128;-70
2022/11/17 08:53:33;;;;;;;8.23;5.40;;;;;;;;;;4999251;28;20058;-70
2022/11/17 08:55:59;;;;;;;3.33;1.30;;;;;;;;;;4997374;28;20053;-70
2022/11/17 08:58:26;;;;;;;1.52;0.60;;;;;;;;;;5003828;28;20188;-69
2022/11/17 09:00:53;;;;;;;1.38;0.77;;;;;;;;;;5000023;28;20459;-71
2022/11/17 09:03:19;;;;;;;2.35;0.40;;;;;;;;;;4998509;28;20096;-71
2022/11/17 09:05:46;;;;;;;2.15;0.40;;;;;;;;;;4999194;28;20050;-71
2022/11/17 09:08:13;;;;;;;2.15;0.55;;;;;;;;;;4996003;28;20497;-70
2022/11/17 09:11:05;;;;;;;2.72;0.50;;;;;;;;;;5000063;28;20104;-70
2022/11/17 09:13:32;;;;;;;1.35;0.50;;;;;;;;;;4997365;28;20046;-70
2022/11/17 09:16:03;;;;;;;1.08;0.40;;;;;;;;;;4995887;28;20112;-70
2022/11/17 09:18:30;;;;;;;1.42;0.30;;;;;;;;;;4997408;28;20038;-70
2022/11/17 09:21:08;;;;;;;1.92;0.40;;;;;;;;;;4997492;28;20105;-70
2022/11/17 09:23:35;;;;;;;0.93;0.40;;;;;;;;;;4995396;28;20089;-70
2022/11/17 09:26:06;;;;;;;1.02;0.40;;;;;;;;;;4997451;28;20677;-70
2022/11/17 09:28:33;;;;;;;1.08;0.40;;;;;;;;;;4998198;28;20084;-71
2022/11/17 09:31:27;;;;;;;3.38;0.77;;;;;;;;;;4994959;28;20050;-70
2022/11/17 09:33:54;;;;;;;3.10;0.45;;;;;;;;;;4996778;28;20409;-70
2022/11/17 09:36:24;;;;;;;2.88;0.40;;;;;;;;;;4999681;28;20053;-70
2022/11/17 09:38:51;;;;;;;1.08;0.40;;;;;;;;;;4993787;28;20504;-70
2022/11/17 09:41:22;;;;;;;4.88;0.80;;;;;;;;;;4997999;28;20046;-69
2022/11/17 09:44:11;;;;;;;1.58;0.50;;;;;;;;;;4997464;28;20058;-70
2022/11/17 09:47:00;;;;;;;0.95;0.45;;;;;;;;;;4993781;28;20061;-69
2022/11/17 09:49:46;;;;;;;4.07;0.73;;;;;;;;;;5007548;28;20108;-69
2022/11/17 09:52:15;;;;;;;1.98;0.70;;;;;;;;;;5002283;28;20054;-67
2022/11/17 09:54:47;;;;;;;1.85;0.90;;;;;;;;;;5006976;28;20073;-70
2022/11/17 09:57:24;;;;;;;2.60;0.52;;;;;;;;;;5006636;28;20061;-67
2022/11/17 10:00:04;;;;;;;2.75;0.50;;;;;;;;;;4999664;28;20050;-68
2022/11/17 10:02:31;;;;;;;2.78;0.57;;;;;;;;;;5002279;28;20050;-68
2022/11/17 10:04:59;;;;;;;2.17;0.77;;;;;;;;;;5008173;28;20057;-67
2022/11/17 10:07:26;;;;;;;5.15;3.38;;;;;;;;;;5008440;28;20424;-67
2022/11/17 10:09:52;;;;;;;5.25;2.33;;;;;;;;;;4999968;28;20061;-66
2022/11/17 10:12:26;;;;;;;3.95;2.10;;;;;;;;;;5000208;28;20053;-66
2022/11/17 10:14:53;;;;;;;3.53;1.10;;;;;;;;;;4984629;28;20108;-67
2022/11/17 10:17:20;;;;;;;2.38;0.70;;;;;;;;;;5002809;28;20054;-67
2022/11/17 10:19:46;;;;;;;3.38;1.17;;;;;;;;;;5003088;28;20120;-68
2022/11/17 10:22:34;;;;;;;3.28;1.13;;;;;;;;;;5002670;28;20230;-66
2022/11/17 10:25:01;;;;;;;5.18;1.75;;;;;;;;;;5001908;28;20133;-67
2022/11/17 10:27:30;;;;;;;1.73;1.15;;;;;;;;;;5004255;28;20058;-67
2022/11/17 10:30:03;;;;;;;2.22;0.90;;;;;;;;;;5000863;28;20086;-67
2022/11/17 10:32:37;;;;;;;2.17;0.93;;;;;;;;;;5037831;22;20041;-69
2022/11/17 10:35:13;;;;;;;4.22;0.82;;;;;;;;;;5043690;28;20682;-69
2022/11/17 10:37:43;;;;;;;4.10;0.88;;;;;;;;;;5032111;28;20053;-69
2022/11/17 10:40:21;;;;;;;4.22;1.50;;;;;;;;;;5030981;28;20099;-68
2022/11/17 10:43:10;;;;;;;2.45;0.90;;;;;;;;;;5029299;28;20099;-68
2022/11/17 10:45:45;;;;;;;3.97;0.75;;;;;;;;;;5031671;28;20045;-68
2022/11/17 10:48:21;;;;;;;5.78;2.38;;;;;;;;;;5029172;28;20100;-71
2022/11/17 10:50:51;;;;;;;4.03;0.90;;;;;;;;;;5030014;28;20041;-68
2022/11/17 10:53:28;;;;;;;2.95;0.75;;;;;;;;;;5011646;28;20053;-65
2022/11/17 10:56:00;;;;;;;1.58;0.60;;;;;;;;;;5030410;28;20107;-69
2022/11/17 10:58:31;;;;;;;4.07;1.60;;;;;;;;;;5026621;28;20050;-68
2022/11/17 11:01:02;;;;;;;2.55;0.90;;;;;;;;;;5028264;28;20057;-66
2022/11/17 11:03:30;;;;;;;5.18;0.70;;;;;;;;;;5029413;28;20081;-66
2022/11/17 11:06:02;;;;;;;3.78;1.23;;;;;;;;;;5013469;28;20438;-64
2022/11/17 11:08:52;;;;;;;4.20;1.23;;;;;;;;;;5028649;28;20053;-64
2022/11/17 11:11:43;;;;;;;5.22;0.63;;;;;;;;;;5028634;28;20045;-65
2022/11/17 11:14:12;;;;;;;4.32;0.80;;;;;;;;;;5015290;28;20652;-65
2022/11/17 11:16:46;;;;;;;4.22;0.80;;;;;;;;;;5029558;28;20471;-64
2022/11/17 11:19:15;;;;;;;7.60;1.05;;;;;;;;;;5026200;28;20315;-64
2022/11/17 11:22:07;;;;;;;2.65;0.45;;;;;;;;;;5029473;28;20479;-64
2022/11/17 11:24:59;;;;;;;5.30;0.95;;;;;;;;;;5028451;28;20103;-64
2022/11/17 11:27:35;;;;;;;5.18;1.13;;;;;;;;;;5027246;28;20906;-65
2022/11/17 11:30:04;;;;;;;2.60;0.55;;;;;;;;;;5024759;28;20042;-65
2022/11/17 11:33:01;;;;;;;4.47;1.05;;;;;;;;;;5028711;28;20045;-65
2022/11/17 11:35:40;;;;;;;3.28;0.70;;;;;;;;;;5029255;28;20046;-68
2022/11/17 11:38:12;;;;;;;5.45;0.70;;;;;;;;;;5028479;28;20045;-69
2022/11/17 11:40:40;;;;;;;1.40;0.50;;;;;;;;;;5027321;28;20046;-68
2022/11/17 11:43:25;;;;;;;4.10;0.57;;;;;;;;;;5028416;28;20183;-68
2022/11/17 11:46:01;;;;;;;4.30;0.65;;;;;;;;;;5029454;28;20077;-64
2022/11/17 11:48:32;;;;;;;3.03;0.70;;;;;;;;;;5024573;28;20128;-66
2022/11/17 11:51:02;;;;;;;5.20;1.25;;;;;;;;;;5029281;28;20467;-66
2022/11/17 11:53:50;;;;;;;4.18;0.55;;;;;;;;;;5011771;28;20050;-66
2022/11/17 11:56:28;;;;;;;3.08;0.70;;;;;;;;;;5026598;28;20096;-67
2022/11/17 11:59:38;;;;;;;3.53;1.00;;;;;;;;;;5022629;28;20145;-66
2022/11/17 12:02:12;;;;;;;9.15;3.78;;;;;;;;;;4990706;28;20050;-64
2022/11/17 12:05:09;;;;;;;3.78;1.77;;;;;;;;;;5027326;28;20049;-67
2022/11/17 12:07:45;;;;;;;5.00;1.75;;;;;;;;;;5026488;28;20076;-67
2022/11/17 12:10:18;;;;;;;6.75;1.77;;;;;;;;;;5010417;28;20152;-67
2022/11/17 12:12:45;;;;;;;8.95;3.30;;;;;;;;;;5028959;28;20096;-67
2022/11/17 12:15:18;;;;;;;7.80;3.80;;;;;;;;;;5027450;28;20084;-65
2022/11/17 12:17:50;;;;;;;6.95;1.60;;;;;;;;;;5028497;28;20064;-66
2022/11/17 12:20:34;;;;;;;6.13;1.85;;;;;;;;;;5027089;28;20522;-66
2022/11/17 12:23:17;;;;;;;5.35;1.27;;;;;;;;;;5027147;28;20462;-66
2022/11/17 12:25:45;;;;;;;2.25;1.00;;;;;;;;;;5029226;28;20144;-64
2022/11/17 12:28:35;;;;;;;3.53;0.90;;;;;;;;;;5029686;28;20049;-65
2022/11/17 12:31:03;;;;;;;5.20;2.25;;;;;;;;;;5026823;28;20551;-64
2022/11/17 12:34:15;;;;;;;3.25;1.90;;;;;;;;;;5025658;28;20058;-63
2022/11/17 12:36:42;;;;;;;3.28;0.60;;;;;;;;;;5016583;28;20087;-63
2022/11/17 12:39:49;;;;;;;3.97;0.88;;;;;;;;;;5029369;28;20595;-63
2022/11/17 12:42:16;;;;;;;4.57;0.85;;;;;;;;;;5025203;28;20056;-63
2022/11/17 12:44:48;;;;;;;2.22;0.90;;;;;;;;;;5031977;28;20107;-63
2022/11/17 12:47:36;;;;;;;2.00;0.65;;;;;;;;;;5031646;28;20049;-63
2022/11/17 12:50:11;;;;;;;1.70;0.60;;;;;;;;;;5019694;28;20046;-63
2022/11/17 12:52:47;;;;;;;3.95;1.25;;;;;;;;;;5011665;28;20061;-63
2022/11/17 12:55:55;;;;;;;4.03;1.20;;;;;;;;;;5011981;28;20057;-63
2022/11/17 12:58:32;;;;;;;6.82;1.60;;;;;;;;;;5010363;28;20097;-63
2022/11/17 13:01:12;;;;;;;5.63;1.90;;;;;;;;;;5011120;28;20046;-63
2022/11/17 13:03:48;;;;;;;3.95;1.25;;;;;;;;;;5010915;28;20054;-63
2022/11/17 13:06:15;;;;;;;3.20;1.40;;;;;;;;;;5011684;28;20046;-63
2022/11/17 13:09:09;;;;;;;3.53;0.95;;;;;;;;;;5011179;28;20041;-64
2022/11/17 13:11:36;;;;;;;6.13;1.20;;;;;;;;;;5010509;28;20571;-63
2022/11/17 13:14:15;;;;;;;8.95;1.27;;;;;;;;;;5010392;28;20050;-63
2022/11/17 13:16:49;;;;;;;4.85;1.23;;;;;;;;;;5011918;28;20050;-63
2022/11/17 13:19:33;;;;;;;3.08;1.30;;;;;;;;;;5005096;28;20583;-65
2022/11/17 13:22:15;;;;;;;5.80;1.02;;;;;;;;;;5023899;28;20080;-65
2022/11/17 13:24:46;;;;;;;3.70;0.90;;;;;;;;;;5032143;28;20128;-66
2022/11/17 13:27:19;;;;;;;6.78;1.08;;;;;;;;;;5032957;28;20107;-65
2022/11/17 13:29:46;;;;;;;7.25;1.98;;;;;;;;;;5026718;28;20045;-65
2022/11/17 13:32:17;;;;;;;5.88;1.45;;;;;;;;;;5022632;28;20049;-65
2022/11/17 13:34:49;;;;;;;5.50;1.42;;;;;;;;;;5021131;28;20046;-66
2022/11/17 13:37:18;;;;;;;6.43;1.85;;;;;;;;;;5002177;28;20089;-66
2022/11/17 13:40:18;;;;;;;6.53;0.93;;;;;;;;;;5021175;28;20111;-65
2022/11/17 13:42:45;;;;;;;6.68;1.27;;;;;;;;;;5014312;28;20077;-65
2022/11/17 13:45:14;;;;;;;4.47;1.17;;;;;;;;;;5012347;28;20488;-66
2022/11/17 13:47:44;;;;;;;4.38;1.20;;;;;;;;;;4996406;28;20104;-65
2022/11/17 13:50:30;;;;;;;1.85;0.82;;;;;;;;;;5024508;28;20045;-65
2022/11/17 13:53:09;;;;;;;5.55;1.20;;;;;;;;;;5031401;28;20605;-66
2022/11/17 13:55:36;;;;;;;7.22;1.00;;;;;;;;;;5033031;28;20471;-66
2022/11/17 13:58:05;;;;;;;3.05;0.90;;;;;;;;;;5013049;28;20123;-66
2022/11/17 14:00:32;;;;;;;3.22;0.82;;;;;;;;;;5023567;28;20042;-65
2022/11/17 14:03:02;;;;;;;6.15;1.10;;;;;;;;;;5032189;28;20482;-66
2022/11/17 14:05:29;;;;;;;7.18;1.60;;;;;;;;;;5029888;28;20045;-65
2022/11/17 14:07:57;;;;;;;5.13;1.35;;;;;;;;;;5030846;28;20057;-65
2022/11/17 14:10:26;;;;;;;7.22;2.45;;;;;;;;;;5026151;28;20081;-66
2022/11/17 14:13:15;;;;;;;6.70;1.17;;;;;;;;;;5027354;28;20606;-63
2022/11/17 14:15:41;;;;;;;5.75;1.35;;;;;;;;;;5026210;28;20475;-63
2022/11/17 14:18:26;;;;;;;6.95;1.60;;;;;;;;;;5028012;28;20057;-64
2022/11/17 14:21:09;;;;;;;5.35;1.02;;;;;;;;;;5029048;28;20444;-66
2022/11/17 14:23:36;;;;;;;6.38;1.30;;;;;;;;;;5023357;28;20436;-64
2022/11/17 14:26:03;;;;;;;10.07;2.42;;;;;;;;;;5031127;28;20621;-64
2022/11/17 14:28:30;;;;;;;8.32;1.20;;;;;;;;;;5027923;28;20208;-67
2022/11/17 14:30:57;;;;;;;5.63;1.10;;;;;;;;;;5025702;28;20049;-63
2022/11/17 14:33:23;;;;;;;6.88;1.65;;;;;;;;;;5022140;28;20479;-65
2022/11/17 14:35:55;;;;;;;7.10;1.30;;;;;;;;;;5026938;28;20080;-65
2022/11/17 14:38:22;;;;;;;4.38;1.55;;;;;;;;;;5013100;28;20504;-67
2022/11/17 14:40:50;;;;;;;6.82;2.20;;;;;;;;;;5028300;28;20058;-68
2022/11/17 14:43:18;;;;;;;6.85;1.75;;;;;;;;;;5029337;28;20065;-68
2022/11/17 14:45:45;;;;;;;7.57;1.80;;;;;;;;;;5028099;28;20133;-67
2022/11/17 14:48:11;;;;;;;8.25;1.70;;;;;;;;;;5028099;28;20090;-69
2022/11/17 14:50:44;;;;;;;10.68;1.88;;;;;;;;;;5021137;28;20129;-69
2022/11/17 14:53:11;;;;;;;8.73;1.63;;;;;;;;;;5029611;28;20060;-69
2022/11/17 14:55:38;;;;;;;7.88;2.28;;;;;;;;;;5031082;28;20053;-68
2022/11/17 14:58:04;;;;;;;10.23;2.28;;;;;;;;;;5031717;28;20049;-66
2022/11/17 15:00:31;;;;;;;9.65;2.25;;;;;;;;;;5029335;28;20046;-66
2022/11/17 15:02:58;;;;;;;7.05;2.25;;;;;;;;;;5031231;28;20053;-68
2022/11/17 15:05:26;;;;;;;9.45;3.80;;;;;;;;;;5029598;28;20522;-70
2022/11/17 15:07:54;;;;;;;15.93;4.10;;;;;;;;;;5030312;28;20115;-67
2022/11/17 15:10:22;;;;;;;14.45;4.43;;;;;;;;;;5029057;28;20400;-69
2022/11/17 15:12:48;;;;;;;9.93;3.67;;;;;;;;;;5029477;28;20061;-70
2022/11/17 15:15:16;;;;;;;10.73;3.70;;;;;;;;;;5026880;28;20140;-68
2022/11/17 15:17:43;;;;;;;10.18;1.90;;;;;;;;;;5030801;28;20095;-68
2022/11/17 15:20:10;;;;;;;15.60;2.95;;;;;;;;;;5030113;28;20053;-68
2022/11/17 15:22:37;;;;;;;8.02;2.75;;;;;;;;;;5028943;28;20462;-68
2022/11/17 15:25:04;;;;;;;9.05;3.47;;;;;;;;;;5029800;28;20081;-65
2022/11/17 15:27:31;;;;;;;13.93;5.47;;;;;;;;;;5030520;28;20041;-65
2022/11/17 15:29:57;;;;;;;11.05;4.18;;;;;;;;;;5029751;28;20072;-65
2022/11/17 15:32:24;;;;;;;10.45;3.05;;;;;;;;;;5030400;28;20075;-68
2022/11/17 15:34:51;;;;;;;9.55;2.40;;;;;;;;;;5027266;28;20041;-67
2022/11/17 15:37:17;;;;;;;6.95;2.65;;;;;;;;;;5030379;28;20076;-66